Time;durP1;ratioP1;P1;durP2;ratioP2;P2;SDS_P1;SDS_P2;PMS_P1;PMS_P2;Temp;Humidity;BMP_temperature;BMP_pressure;BME280_temperature;BME280_humidity;BME280_pressure;Samples;Min_cycle;Max_cycle;Signal;HPM_P1;HPM_P2
2022/09/15 04:39:54;;;;;;;4.15;3.75;;;;;;;14.54;95.59;99111.03;1655546;86;21120;-39
2022/09/15 04:42:21;;;;;;;5.80;3.77;;;;;;;14.56;95.69;99106.59;1702183;84;21719;-40
2022/09/15 04:44:48;;;;;;;5.65;3.77;;;;;;;14.57;95.91;99109.63;1703237;84;21088;-47
2022/09/15 04:47:14;;;;;;;6.42;3.85;;;;;;;14.57;96.22;99097.78;1734167;81;21542;-48
2022/09/15 04:49:42;;;;;;;11.10;4.05;;;;;;;14.59;96.54;99103.84;1746636;81;21007;-40
2022/09/15 04:52:09;;;;;;;12.60;5.10;;;;;;;14.60;96.90;99100.28;1736947;81;21661;-48
2022/09/15 04:54:36;;;;;;;9.55;4.42;;;;;;;14.62;97.26;99101.57;1741518;82;20994;-40
2022/09/15 04:57:04;;;;;;;12.53;4.22;;;;;;;14.68;97.51;99092.59;1738307;81;21036;-47
2022/09/15 04:59:31;;;;;;;5.30;4.05;;;;;;;14.73;97.77;99085.40;1740070;81;21670;-39
2022/09/15 05:01:57;;;;;;;10.30;4.75;;;;;;;14.78;98.20;99076.84;1730271;81;20994;-40
2022/09/15 05:04:24;;;;;;;20.57;5.78;;;;;;;14.84;98.74;99072.67;1739874;81;21540;-48
2022/09/15 05:06:51;;;;;;;8.95;4.80;;;;;;;14.88;99.24;99068.56;1731793;81;20991;-47
2022/09/15 05:09:17;;;;;;;12.30;5.80;;;;;;;14.94;99.72;99064.84;1728343;81;21066;-47
2022/09/15 05:11:43;;;;;;;9.93;5.12;;;;;;;15.03;100.00;99071.56;1731628;81;21463;-40
2022/09/15 05:14:10;;;;;;;9.50;5.67;;;;;;;15.09;100.00;99068.70;1733355;81;21071;-39
2022/09/15 05:16:38;;;;;;;8.20;5.20;;;;;;;15.19;100.00;99070.07;1734349;81;21444;-40
2022/09/15 05:19:05;;;;;;;8.68;5.97;;;;;;;15.27;100.00;99068.45;1741654;81;21009;-48
2022/09/15 05:21:32;;;;;;;8.28;5.67;;;;;;;15.33;100.00;99070.38;1733944;81;21403;-48
2022/09/15 05:23:58;;;;;;;8.20;5.53;;;;;;;15.38;100.00;99068.44;1734764;81;21018;-48
2022/09/15 05:26:27;;;;;;;7.35;6.12;;;;;;;15.44;100.00;99077.88;1733719;81;21492;-46
2022/09/15 05:28:55;;;;;;;9.10;6.08;;;;;;;15.52;100.00;99079.74;1729648;81;21028;-46
2022/09/15 05:31:29;;;;;;;11.05;7.03;;;;;;;15.61;100.00;99078.08;1729726;81;20957;-47
2022/09/15 05:33:58;;;;;;;8.53;5.70;;;;;;;15.69;100.00;99073.38;1727843;81;21396;-47
2022/09/15 05:36:25;;;;;;;10.50;6.08;;;;;;;15.80;100.00;99072.09;1699655;81;21276;-47
2022/09/15 05:38:59;;;;;;;12.07;6.83;;;;;;;15.88;100.00;99069.52;1712730;81;21041;-47
2022/09/15 05:41:23;;;;;;;11.33;6.40;;;;;;;16.00;100.00;99069.48;1688860;83;21025;-47
2022/09/15 05:43:52;;;;;;;12.35;7.33;;;;;;;16.12;100.00;99066.36;1691109;82;21057;-48
2022/09/15 05:46:19;;;;;;;8.63;6.47;;;;;;;16.18;100.00;99063.92;1700328;83;20972;-47
2022/09/15 05:48:46;;;;;;;13.75;6.20;;;;;;;16.23;100.00;99069.84;1694510;83;21034;-48
2022/09/15 05:51:14;;;;;;;10.28;6.10;;;;;;;16.25;100.00;99068.02;1692038;83;21025;-48
2022/09/15 05:53:40;;;;;;;10.32;6.87;;;;;;;16.26;100.00;99060.95;1692179;83;21167;-47
2022/09/15 05:56:10;;;;;;;10.60;5.92;;;;;;;16.23;100.00;99061.92;1693245;82;21852;-49
2022/09/15 05:58:40;;;;;;;12.05;6.08;;;;;;;16.24;100.00;99059.70;1691407;83;21535;-47
2022/09/15 06:01:19;;;;;;;8.78;5.95;;;;;;;16.26;100.00;99058.31;1688152;83;21412;-40
2022/09/15 06:03:47;;;;;;;16.77;6.65;;;;;;;16.25;100.00;99056.14;1676863;82;21902;-39
2022/09/15 06:06:14;;;;;;;9.33;6.58;;;;;;;16.27;100.00;99052.11;1693665;82;21480;-41
2022/09/15 06:08:44;;;;;;;9.08;6.15;;;;;;;16.30;100.00;99054.16;1696720;83;21058;-41
2022/09/15 06:11:16;;;;;;;10.13;6.72;;;;;;;16.33;100.00;99054.48;1699089;83;21535;-40
2022/09/15 06:13:44;;;;;;;12.78;8.33;;;;;;;16.36;100.00;99049.09;1698013;81;21025;-40
2022/09/15 06:16:14;;;;;;;16.20;7.75;;;;;;;16.37;100.00;99045.52;1691172;82;21336;-47
2022/09/15 06:18:40;;;;;;;12.40;7.40;;;;;;;16.39;100.00;99045.83;1696849;83;21670;-41
2022/09/15 06:21:10;;;;;;;15.78;7.85;;;;;;;16.42;100.00;99054.95;1693084;82;21048;-41
2022/09/15 06:23:37;;;;;;;10.23;7.92;;;;;;;16.45;100.00;99057.44;1695805;83;21079;-49
2022/09/15 06:26:13;;;;;;;23.92;9.35;;;;;;;16.53;100.00;99060.23;1696601;83;21021;-42
2022/09/15 06:28:41;;;;;;;11.35;7.83;;;;;;;16.60;100.00;99056.39;1686477;83;21063;-41
2022/09/15 06:31:13;;;;;;;15.43;8.08;;;;;;;16.67;100.00;99060.01;1687039;83;21020;-48
2022/09/15 06:33:44;;;;;;;13.50;7.30;;;;;;;16.72;100.00;99046.17;1688460;83;21489;-49
2022/09/15 06:36:12;;;;;;;13.78;8.63;;;;;;;16.78;100.00;99051.64;1692914;83;21951;-48
2022/09/15 06:38:39;;;;;;;15.48;8.45;;;;;;;16.83;100.00;99049.66;1699014;81;21038;-49
2022/09/15 06:41:05;;;;;;;15.35;7.75;;;;;;;16.88;100.00;99048.13;1730131;81;20953;-41
2022/09/15 06:43:32;;;;;;;16.90;9.73;;;;;;;16.94;100.00;99047.85;1703457;82;21847;-43
2022/09/15 06:46:04;;;;;;;17.32;10.72;;;;;;;16.99;100.00;99045.86;1741027;80;20965;-42
2022/09/15 06:48:31;;;;;;;14.93;9.38;;;;;;;17.04;100.00;99038.55;1734360;81;21025;-42
2022/09/15 06:50:59;;;;;;;16.85;9.75;;;;;;;17.06;100.00;99035.40;1729178;81;21370;-42
2022/09/15 06:53:29;;;;;;;18.62;10.28;;;;;;;17.09;100.00;99032.59;1736523;81;21040;-41
2022/09/15 06:56:01;;;;;;;14.80;9.38;;;;;;;17.12;100.00;99032.94;1740976;81;21010;-49
2022/09/15 06:58:28;;;;;;;22.50;10.65;;;;;;;17.14;100.00;99020.03;1735098;80;21635;-48
2022/09/15 07:01:10;;;;;;;11.18;8.33;;;;;;;17.19;100.00;99013.22;1740740;80;21020;-48
2022/09/15 07:03:39;;;;;;;14.33;9.17;;;;;;;17.23;100.00;99015.65;1730758;81;21042;-42
2022/09/15 07:06:06;;;;;;;14.38;8.28;;;;;;;17.29;100.00;99015.82;1739530;80;21003;-41
2022/09/15 07:08:33;;;;;;;15.60;8.28;;;;;;;17.34;100.00;99006.36;1739181;81;21094;-42
2022/09/15 07:11:01;;;;;;;19.73;8.13;;;;;;;17.37;100.00;99008.38;1699476;82;21020;-43
2022/09/15 07:13:29;;;;;;;12.35;7.65;;;;;;;17.43;100.00;99019.97;1704030;82;21528;-49
2022/09/15 07:15:58;;;;;;;16.60;7.55;;;;;;;17.48;100.00;99023.25;1686081;83;21516;-49
2022/09/15 07:18:25;;;;;;;11.60;8.60;;;;;;;17.53;100.00;99023.04;1680275;83;21059;-42
2022/09/15 07:20:52;;;;;;;13.45;8.95;;;;;;;17.54;100.00;99015.02;1693355;82;21426;-43
2022/09/15 07:23:18;;;;;;;13.53;8.58;;;;;;;17.56;100.00;99011.83;1690778;79;21152;-49
2022/09/15 07:25:45;;;;;;;16.75;9.65;;;;;;;17.59;100.00;99016.13;1687321;82;21527;-49
2022/09/15 07:28:16;;;;;;;16.27;10.03;;;;;;;17.61;100.00;99016.05;1696864;82;21061;-49
2022/09/15 07:30:43;;;;;;;20.17;9.85;;;;;;;17.61;100.00;99010.28;1708373;83;20974;-49
2022/09/15 07:33:12;;;;;;;14.20;9.33;;;;;;;17.65;100.00;99007.03;1689315;83;21150;-41
2022/09/15 07:35:42;;;;;;;12.23;9.23;;;;;;;17.66;100.00;99003.45;1686606;83;21021;-49
2022/09/15 07:38:09;;;;;;;16.82;10.60;;;;;;;17.69;100.00;98995.38;1747758;80;21024;-49
2022/09/15 07:40:37;;;;;;;19.70;11.12;;;;;;;17.69;100.00;98998.88;1752944;80;20952;-49
2022/09/15 07:43:05;;;;;;;14.10;10.30;;;;;;;17.71;100.00;98986.90;1751660;80;21313;-44
2022/09/15 07:45:32;;;;;;;19.10;9.68;;;;;;;17.75;100.00;98991.14;1751325;80;21351;-42
2022/09/15 07:47:58;;;;;;;15.35;10.70;;;;;;;17.79;100.00;98990.89;1754009;80;20992;-43
2022/09/15 07:50:25;;;;;;;17.48;10.25;;;;;;;17.86;100.00;98989.26;1750447;80;21871;-42
2022/09/15 07:52:55;;;;;;;22.98;11.10;;;;;;;17.92;100.00;98987.66;1754724;80;21051;-42
2022/09/15 07:55:23;;;;;;;18.67;10.68;;;;;;;17.96;100.00;98990.05;1752039;80;21004;-43
2022/09/15 07:57:59;;;;;;;17.82;11.18;;;;;;;18.00;100.00;98989.44;1754606;80;21630;-42
2022/09/15 08:00:26;;;;;;;21.05;11.60;;;;;;;18.05;100.00;98982.97;1755670;80;20976;-43
2022/09/15 08:02:53;;;;;;;17.73;11.10;;;;;;;18.11;100.00;98978.30;1756715;80;21543;-49
2022/09/15 08:05:20;;;;;;;24.00;12.23;;;;;;;18.17;100.00;98972.22;1755927;80;21388;-49
2022/09/15 08:07:47;;;;;;;15.75;10.75;;;;;;;18.24;100.00;98963.49;1756964;80;21599;-47
2022/09/15 08:10:15;;;;;;;17.95;11.20;;;;;;;18.31;100.00;98962.23;1755400;80;21662;-49
2022/09/15 08:12:43;;;;;;;14.28;10.70;;;;;;;18.39;100.00;98969.78;1754053;80;21059;-43
2022/09/15 08:15:10;;;;;;;14.43;8.53;;;;;;;18.48;100.00;98969.28;1755308;80;21069;-48
2022/09/15 08:17:37;;;;;;;19.45;9.55;;;;;;;18.58;100.00;98971.83;1753597;80;22025;-48
2022/09/15 08:20:07;;;;;;;15.23;8.83;;;;;;;18.67;100.00;98970.47;1752446;80;21380;-42
2022/09/15 08:22:36;;;;;;;;;;;;;;;18.74;100.00;98971.91;1700233;81;22188;-48
2022/09/15 08:25:04;;;;;;;17.73;10.25;;;;;;;18.80;100.00;98972.89;1747591;80;20124;-48
2022/09/15 08:27:37;;;;;;;14.63;8.78;;;;;;;18.80;100.00;98973.75;1747595;80;21725;-42
2022/09/15 08:30:07;;;;;;;20.15;10.03;;;;;;;18.83;100.00;98982.84;1738321;81;21318;-42
2022/09/15 08:32:41;;;;;;;15.43;8.73;;;;;;;18.86;100.00;98985.80;1750738;79;21041;-49
2022/09/15 08:35:09;;;;;;;22.82;10.10;;;;;;;18.85;100.00;98986.28;1750158;80;21389;-42
2022/09/15 08:37:36;;;;;;;25.82;8.13;;;;;;;18.84;100.00;98980.59;1748624;80;21631;-42
2022/09/15 08:40:05;;;;;;;12.90;7.85;;;;;;;18.87;100.00;98975.59;1753385;80;21126;-42
2022/09/15 08:42:32;;;;;;;20.75;7.03;;;;;;;18.93;100.00;98976.58;1747158;80;21018;-48
2022/09/15 08:45:08;;;;;;;13.38;6.58;;;;;;;19.01;100.00;98967.72;1694888;81;21460;-42
2022/09/15 08:47:54;;;;;;;19.82;6.83;;;;;;;19.08;100.00;98962.48;1718813;80;21699;-43
2022/09/15 08:50:33;;;;;;;25.88;7.35;;;;;;;19.13;100.00;98963.53;1751614;79;20996;-41
2022/09/15 08:53:12;;;;;;;12.40;5.80;;;;;;;19.13;100.00;98953.81;1738247;81;21041;-49
2022/09/15 08:55:48;;;;;;;9.43;5.97;;;;;;;19.12;100.00;98948.09;1743230;81;21167;-50
2022/09/15 08:58:22;;;;;;;13.15;6.05;;;;;;;19.11;100.00;98954.82;1739299;80;21465;-48
2022/09/15 09:00:52;;;;;;;17.60;5.28;;;;;;;19.11;100.00;98956.14;1728744;81;21531;-44
2022/09/15 09:03:36;;;;;;;17.35;5.67;;;;;;;19.13;100.00;98953.81;1750650;81;21501;-43
2022/09/15 09:06:12;;;;;;;34.80;6.75;;;;;;;19.20;100.00;98951.66;1749901;81;20965;-42
2022/09/15 09:09:21;;;;;;;20.57;6.92;;;;;;;19.30;100.00;98944.88;1747085;80;21091;-43
2022/09/15 09:12:01;;;;;;;14.23;7.28;;;;;;;19.41;100.00;98936.31;1741111;81;21086;-41
2022/09/15 09:14:52;;;;;;;12.80;7.10;;;;;;;19.52;99.37;98936.55;1746479;81;21461;-48
2022/09/15 09:18:04;;;;;;;14.35;7.10;;;;;;;19.58;99.20;98939.31;1675680;83;21580;-48
2022/09/15 09:20:48;;;;;;;14.70;6.20;;;;;;;19.60;98.40;98931.70;1676414;83;21525;-49
2022/09/15 09:23:19;;;;;;;15.40;6.15;;;;;;;19.61;98.52;98931.23;1680620;83;21060;-49
2022/09/15 09:25:46;;;;;;;13.20;6.78;;;;;;;19.62;98.31;98927.15;1677947;84;21434;-41
2022/09/15 09:28:30;;;;;;;7.08;5.92;;;;;;;19.63;97.77;98928.86;1683398;84;21598;-49
2022/09/15 09:31:04;;;;;;;15.95;6.85;;;;;;;19.63;96.29;98930.66;1667187;84;21071;-49
2022/09/15 09:33:52;;;;;;;14.33;6.37;;;;;;;19.61;95.17;98925.92;1673591;84;21075;-49
2022/09/15 09:36:18;;;;;;;17.25;5.67;;;;;;;19.59;94.95;98918.51;1667400;84;21452;-49
2022/09/15 09:38:46;;;;;;;7.37;4.65;;;;;;;19.60;94.18;98917.12;1672761;84;21642;-49
2022/09/15 09:41:24;;;;;;;6.35;3.40;;;;;;;19.62;94.03;98915.21;1674363;84;20995;-40
2022/09/15 09:43:49;;;;;;;5.55;3.20;;;;;;;19.64;91.17;98920.42;1665939;84;21142;-41
2022/09/15 09:46:17;;;;;;;7.42;3.35;;;;;;;19.64;88.89;98923.92;1643784;85;20992;-41
2022/09/15 09:48:53;;;;;;;7.72;3.15;;;;;;;19.66;87.64;98926.52;1673416;84;21633;-49
2022/09/15 09:51:39;;;;;;;5.78;3.80;;;;;;;19.67;86.87;98933.52;1667072;84;21035;-41
2022/09/15 09:54:15;;;;;;;7.00;3.98;;;;;;;19.68;86.29;98928.59;1728335;80;21481;-47
2022/09/15 09:56:43;;;;;;;4.05;2.90;;;;;;;19.69;86.63;98932.09;1729822;80;21715;-49
2022/09/15 09:59:35;;;;;;;6.00;3.30;;;;;;;19.73;86.85;98934.96;1772613;80;21049;-49
2022/09/15 10:02:15;;;;;;;9.43;3.80;;;;;;;19.75;86.91;98931.73;1716171;80;22104;-48
2022/09/15 10:05:16;;;;;;;8.98;3.08;;;;;;;19.78;87.09;98933.75;1758819;80;21457;-43
2022/09/15 10:08:06;;;;;;;5.53;3.40;;;;;;;19.80;86.62;98928.34;1766396;80;21084;-48
2022/09/15 10:10:32;;;;;;;8.75;3.37;;;;;;;19.80;85.47;98922.56;1767417;80;20942;-48
2022/09/15 10:13:00;;;;;;;4.67;3.40;;;;;;;19.82;85.64;98920.66;1763694;80;21090;-48
2022/09/15 10:15:33;;;;;;;12.00;3.70;;;;;;;19.84;86.05;98917.45;1740105;80;20957;-48
2022/09/15 10:18:00;;;;;;;4.83;3.00;;;;;;;19.87;85.42;98915.93;1773085;80;20993;-48
2022/09/15 10:20:41;;;;;;;8.43;3.45;;;;;;;19.91;85.04;98911.30;1765487;80;21377;-48
2022/09/15 10:23:22;;;;;;;4.12;3.02;;;;;;;19.96;85.49;98910.56;1764835;80;21025;-48
2022/09/15 10:25:49;;;;;;;4.58;2.95;;;;;;;20.02;84.63;98906.69;1688246;83;21861;-49
2022/09/15 10:28:18;;;;;;;8.60;3.25;;;;;;;20.06;84.88;98913.49;1760981;80;20995;-48
2022/09/15 10:31:02;;;;;;;4.00;2.80;;;;;;;20.08;84.52;98916.45;1770032;80;20970;-48
2022/09/15 10:33:40;;;;;;;5.22;3.00;;;;;;;20.11;84.73;98913.59;1762857;80;21439;-48
2022/09/15 10:36:20;;;;;;;4.00;2.52;;;;;;;20.15;84.41;98909.81;1763042;80;20974;-48
2022/09/15 10:38:49;;;;;;;4.85;2.83;;;;;;;20.17;83.21;98907.06;1773285;80;21030;-42
2022/09/15 10:41:31;;;;;;;4.92;3.55;;;;;;;20.20;82.89;98915.70;1747573;80;21009;-48
2022/09/15 10:44:18;;;;;;;5.17;3.17;;;;;;;20.19;83.12;98910.02;1770858;80;21062;-42
2022/09/15 10:47:12;;;;;;;7.85;3.02;;;;;;;20.22;83.11;98913.42;1751599;81;21542;-48
2022/09/15 10:50:18;;;;;;;10.53;3.15;;;;;;;20.19;82.74;98914.00;1712978;82;21929;-48
2022/09/15 10:53:02;;;;;;;5.08;3.30;;;;;;;20.17;82.38;98919.86;1715322;82;21092;-42
2022/09/15 10:55:35;;;;;;;5.53;2.72;;;;;;;20.13;82.07;98921.02;1688896;83;21062;-41
2022/09/15 10:58:37;;;;;;;8.15;3.30;;;;;;;20.10;82.40;98905.73;1692173;83;21137;-41
2022/09/15 11:01:31;;;;;;;4.30;2.87;;;;;;;20.10;82.45;98905.25;1692844;84;21520;-41
2022/09/15 11:04:10;;;;;;;6.78;3.20;;;;;;;20.12;82.23;98914.45;1690154;83;21118;-48
2022/09/15 11:07:06;;;;;;;7.17;2.62;;;;;;;20.12;82.17;98916.66;1687909;84;21371;-48
2022/09/15 11:10:02;;;;;;;17.98;2.87;;;;;;;20.12;82.04;98912.67;1656075;86;21014;-48
2022/09/15 11:13:04;;;;;;;3.85;2.87;;;;;;;20.12;82.43;98915.77;1627091;86;21482;-45
2022/09/15 11:15:49;;;;;;;5.95;2.75;;;;;;;20.11;82.50;98916.25;1682486;83;21462;-45
2022/09/15 11:19:07;;;;;;;8.73;3.00;;;;;;;20.11;82.27;98914.07;1670640;84;21176;-43
2022/09/15 11:21:42;;;;;;;5.58;2.75;;;;;;;20.11;81.92;98913.59;1593210;88;21101;-44
2022/09/15 11:24:51;;;;;;;13.43;3.10;;;;;;;20.11;81.73;98912.27;1607772;87;21096;-47
2022/09/15 11:27:24;;;;;;;30.15;4.03;;;;;;;20.15;81.48;98901.00;1521490;93;21098;-45
2022/09/15 11:30:21;;;;;;;16.12;3.67;;;;;;;20.15;80.93;98903.18;1527292;93;21523;-42
2022/09/15 11:33:10;;;;;;;8.05;2.90;;;;;;;20.17;80.63;98902.59;1525381;93;21715;-45
2022/09/15 11:36:03;;;;;;;12.90;3.90;;;;;;;20.19;80.37;98899.40;1517981;93;21148;-42
2022/09/15 11:38:46;;;;;;;5.90;2.95;;;;;;;20.23;80.20;98894.73;1528656;92;21606;-39
2022/09/15 11:41:31;;;;;;;4.35;2.95;;;;;;;20.25;80.17;98900.83;1519661;93;21640;-39
2022/09/15 11:44:21;;;;;;;5.53;3.10;;;;;;;20.27;80.15;98895.41;1528195;92;21173;-40
2022/09/15 11:47:19;;;;;;;4.45;2.90;;;;;;;20.28;80.86;98892.66;1527962;92;21053;-40
2022/09/15 11:50:12;;;;;;;5.90;3.30;;;;;;;20.31;80.81;98896.46;1529056;92;21644;-41
2022/09/15 11:52:55;;;;;;;8.55;3.00;;;;;;;20.35;80.66;98894.45;1525978;92;21078;-41
2022/09/15 11:55:36;;;;;;;7.20;3.17;;;;;;;20.38;80.45;98892.95;1555194;89;21176;-48
2022/09/15 11:58:17;;;;;;;5.12;3.40;;;;;;;20.40;80.71;98893.22;1633723;84;21094;-41
2022/09/15 12:01:09;;;;;;;7.30;3.58;;;;;;;20.43;80.28;98897.02;1684935;84;21042;-41
2022/09/15 12:04:01;;;;;;;4.83;2.92;;;;;;;20.45;80.35;98903.56;1750600;80;21049;-47
2022/09/15 12:06:48;;;;;;;4.85;3.25;;;;;;;20.48;80.13;98910.53;1747181;81;21071;-48
2022/09/15 12:09:16;;;;;;;5.55;3.42;;;;;;;20.50;80.66;98912.61;1734858;81;21428;-48
2022/09/15 12:11:46;;;;;;;4.90;3.72;;;;;;;20.51;81.06;98907.67;1734086;81;21023;-48
2022/09/15 12:14:34;;;;;;;5.10;3.47;;;;;;;20.52;81.79;98910.70;1735605;81;21059;-48
2022/09/15 12:17:01;;;;;;;9.03;3.08;;;;;;;20.53;82.63;98908.45;1745736;82;21374;-46
2022/09/15 12:19:41;;;;;;;7.45;3.60;;;;;;;20.52;83.20;98907.56;1746375;82;21584;-47
2022/09/15 12:22:37;;;;;;;9.03;3.77;;;;;;;20.53;83.34;98902.66;1745141;82;21017;-48
2022/09/15 12:25:15;;;;;;;6.70;3.87;;;;;;;20.53;84.21;98900.00;1752785;81;21454;-47
2022/09/15 12:27:42;;;;;;;4.75;2.98;;;;;;;20.52;85.26;98904.06;1746902;81;21563;-47
2022/09/15 12:30:39;;;;;;;6.10;3.33;;;;;;;20.50;86.05;98901.98;1751397;81;21498;-48
2022/09/15 12:33:44;;;;;;;4.28;2.70;;;;;;;20.48;85.36;98895.92;1734572;81;21055;-48
2022/09/15 12:36:38;;;;;;;4.85;2.58;;;;;;;20.41;84.10;98892.77;1747935;81;21029;-47
2022/09/15 12:39:27;;;;;;;8.78;3.95;;;;;;;20.34;83.72;98894.08;1745137;81;20998;-47
2022/09/15 12:42:07;;;;;;;4.72;2.70;;;;;;;20.30;83.52;98892.58;1750286;81;20990;-47
2022/09/15 12:44:59;;;;;;;5.40;3.37;;;;;;;20.25;83.92;98895.98;1748429;81;21438;-48
2022/09/15 12:47:41;;;;;;;5.90;3.52;;;;;;;20.18;83.96;98903.00;1747641;80;21153;-41
2022/09/15 12:50:29;;;;;;;8.05;2.98;;;;;;;20.10;85.02;98903.93;1714954;81;21648;-41
2022/09/15 12:53:14;;;;;;;9.35;3.25;;;;;;;20.03;85.67;98904.41;1758917;81;21568;-42
2022/09/15 12:55:50;;;;;;;5.75;3.45;;;;;;;19.96;86.64;98906.58;1767442;81;21022;-41
2022/09/15 12:58:29;;;;;;;5.08;2.70;;;;;;;19.87;87.38;98893.84;1767226;81;21030;-47
2022/09/15 13:01:23;;;;;;;10.13;3.40;;;;;;;19.81;87.93;98892.42;1690409;83;21619;-47
